Woodson Terrace, Missouri
Current Conditions -  °F | °C
As of 2:34 PM on Wednesday 26 Nov 2014 (Local Time) from KSTL Reporting Station
Light Snow Light Snow  
Wind Chill: 28°   Ceiling: 300
Heat Index: 34°   Visibility: 0.5mi
Dew Point: 30°   Wind: 7mph
Humidity: 87%   Direction: 120°ESE
Pressure: 29.99"   Gusts: NA
Location:  38.7422°N, 90.3457°W
Report Text: KSTL 262034Z 12006KT 1/2SM R30R/3000V4000FT -SN FG BKN003 OVC007 01/M01 A2999 RMK AO2 P0005
Loading
Personal Weather Stations






























Interactive Weather Map New forecast layout! Learn more

10-Day Weather Forecast

Advertisements
Track Severe Weather on mobile